createdAt,value
2018-04-30T00:00:39.877Z,18.06
2018-04-30T00:01:39.815Z,18.01
2018-04-30T00:02:39.757Z,18.03
2018-04-30T00:03:39.697Z,18.05
2018-04-30T00:04:39.637Z,18.05
2018-04-30T00:05:39.576Z,18.08
2018-04-30T00:06:39.518Z,18.03
2018-04-30T00:07:39.460Z,18.01
2018-04-30T00:08:39.406Z,17.94
2018-04-30T00:09:39.340Z,18.05
2018-04-30T00:10:39.280Z,17.91
2018-04-30T00:11:39.223Z,18.05
2018-04-30T00:12:39.164Z,18.02
2018-04-30T00:13:39.103Z,17.97
2018-04-30T00:14:39.047Z,17.94
2018-04-30T00:15:38.987Z,18.06
2018-04-30T00:16:38.925Z,18.05
2018-04-30T00:17:38.864Z,17.93
2018-04-30T00:18:38.811Z,18.06
2018-04-30T00:19:38.747Z,18.02
2018-04-30T00:20:38.686Z,18.06
2018-04-30T00:21:38.627Z,18.06
2018-04-30T00:22:38.568Z,17.99
2018-04-30T00:23:38.511Z,17.99
2018-04-30T00:24:38.451Z,18.01
2018-04-30T00:25:38.390Z,18.02
2018-04-30T00:26:38.330Z,17.93
2018-04-30T00:27:38.271Z,17.96
2018-04-30T00:28:38.210Z,17.96
2018-04-30T00:29:38.152Z,17.99
2018-04-30T00:30:38.095Z,17.93
2018-04-30T00:31:38.032Z,17.83
2018-04-30T00:32:37.971Z,17.86
2018-04-30T00:33:37.989Z,17.86
2018-04-30T00:34:37.863Z,17.86
2018-04-30T00:35:37.795Z,17.83
2018-04-30T00:36:37.738Z,17.90
2018-04-30T00:37:37.677Z,17.87
2018-04-30T00:38:37.619Z,17.81
2018-04-30T00:39:37.557Z,17.88
2018-04-30T00:40:37.502Z,17.73
2018-04-30T00:41:37.439Z,17.83
2018-04-30T00:42:37.379Z,17.83
2018-04-30T00:43:37.328Z,17.78
2018-04-30T00:44:37.259Z,17.87
2018-04-30T00:45:37.199Z,17.87
2018-04-30T00:46:37.141Z,17.73
2018-04-30T00:47:37.082Z,17.76
2018-04-30T00:48:37.030Z,17.78
2018-04-30T00:49:36.963Z,17.72
2018-04-30T00:50:36.903Z,17.75
2018-04-30T00:51:36.844Z,17.62
2018-04-30T00:52:36.783Z,17.65
2018-04-30T00:53:36.724Z,17.66
2018-04-30T00:54:36.665Z,17.66
2018-04-30T00:55:36.604Z,17.62
2018-04-30T00:56:36.547Z,17.66
2018-04-30T00:57:36.486Z,17.57
2018-04-30T00:58:36.427Z,17.50
2018-04-30T00:59:36.370Z,17.59
2018-04-30T01:00:36.306Z,17.46
2018-04-30T01:01:36.246Z,17.43
2018-04-30T01:02:36.186Z,17.45
2018-04-30T01:03:36.128Z,17.45
2018-04-30T01:04:36.073Z,17.47
2018-04-30T01:05:36.004Z,17.49
2018-04-30T01:06:35.948Z,17.43
2018-04-30T01:07:35.887Z,17.46
2018-04-30T01:08:35.828Z,17.47
2018-04-30T01:09:35.767Z,17.43
2018-04-30T01:10:35.708Z,17.43
2018-04-30T01:11:35.649Z,17.45
2018-04-30T01:12:35.595Z,17.39
2018-04-30T01:13:35.534Z,17.39
2018-04-30T01:14:35.471Z,17.45
2018-04-30T01:15:35.410Z,17.43
2018-04-30T01:16:35.352Z,17.43
2018-04-30T01:17:35.303Z,17.45
2018-04-30T01:18:35.230Z,17.46
2018-04-30T01:19:35.173Z,17.41
2018-04-30T01:20:35.114Z,17.43
2018-04-30T01:21:35.050Z,17.34
2018-04-30T01:22:34.991Z,17.30
2018-04-30T01:23:34.933Z,17.35
2018-04-30T01:24:34.872Z,17.28
2018-04-30T01:25:34.810Z,17.25
2018-04-30T01:26:34.755Z,17.19
2018-04-30T01:27:34.692Z,17.19
2018-04-30T01:28:34.637Z,17.19
2018-04-30T01:29:34.572Z,17.07
2018-04-30T01:30:34.511Z,17.14
2018-04-30T01:31:34.453Z,17.13
2018-04-30T01:32:34.391Z,17.09
2018-04-30T01:33:34.332Z,17.07
2018-04-30T01:34:34.273Z,16.92
2018-04-30T01:35:34.215Z,16.90
2018-04-30T01:36:34.152Z,16.80
2018-04-30T01:37:34.092Z,16.76
2018-04-30T01:38:34.035Z,16.70
2018-04-30T01:39:33.979Z,16.67
2018-04-30T01:40:33.912Z,16.72
2018-04-30T01:41:33.860Z,16.69
2018-04-30T01:42:33.794Z,16.69
2018-04-30T01:43:33.734Z,16.70
2018-04-30T01:44:33.672Z,16.77
2018-04-30T01:45:33.613Z,16.73
2018-04-30T01:46:33.553Z,16.79
2018-04-30T01:47:33.499Z,16.79
2018-04-30T01:48:33.436Z,16.80
2018-04-30T01:49:33.373Z,16.84
2018-04-30T01:50:33.316Z,16.87
2018-04-30T01:51:33.255Z,16.92
2018-04-30T01:52:33.193Z,16.91
2018-04-30T01:53:33.132Z,16.84
2018-04-30T01:54:33.073Z,16.73
2018-04-30T01:55:33.012Z,16.70
2018-04-30T01:56:32.953Z,16.73
2018-04-30T01:57:32.893Z,16.73
2018-04-30T01:58:32.834Z,16.69
2018-04-30T01:59:32.780Z,16.69
2018-04-30T02:00:32.714Z,16.65
2018-04-30T02:01:32.651Z,16.67
2018-04-30T02:02:32.593Z,16.73
2018-04-30T02:03:32.532Z,16.72
2018-04-30T02:04:32.473Z,16.70
2018-04-30T02:05:32.416Z,16.76
2018-04-30T02:06:32.352Z,16.73
2018-04-30T02:07:32.292Z,16.79
2018-04-30T02:08:32.267Z,16.73
2018-04-30T02:09:32.171Z,16.79
2018-04-30T02:10:32.114Z,16.76
2018-04-30T02:11:32.054Z,16.73
2018-04-30T02:12:31.991Z,16.74
2018-04-30T02:13:31.928Z,16.83
2018-04-30T02:14:31.870Z,16.80
2018-04-30T02:15:31.811Z,16.87
2018-04-30T02:16:31.750Z,16.83
2018-04-30T02:17:31.691Z,16.88
2018-04-30T02:18:31.633Z,16.82
2018-04-30T02:19:31.573Z,16.90
2018-04-30T02:20:31.511Z,16.84
2018-04-30T02:21:31.451Z,16.91
2018-04-30T02:22:31.391Z,16.90
2018-04-30T02:23:31.328Z,16.87
2018-04-30T02:24:31.267Z,16.88
2018-04-30T02:25:31.214Z,16.83
2018-04-30T02:26:31.148Z,16.84
2018-04-30T02:27:31.092Z,16.73
2018-04-30T02:28:31.025Z,16.69
2018-04-30T02:29:30.967Z,16.74
2018-04-30T02:30:30.906Z,16.70
2018-04-30T02:31:30.847Z,16.72
2018-04-30T02:32:30.786Z,16.69
2018-04-30T02:33:30.886Z,16.72
2018-04-30T02:34:30.667Z,16.64
2018-04-30T02:35:30.605Z,16.64
2018-04-30T02:36:30.563Z,16.64
2018-04-30T02:37:30.486Z,16.69
2018-04-30T02:38:30.430Z,16.65
2018-04-30T02:39:30.366Z,16.69
2018-04-30T02:40:30.306Z,16.59
2018-04-30T02:41:30.244Z,16.69
2018-04-30T02:42:30.183Z,16.69
2018-04-30T02:43:30.129Z,16.74
2018-04-30T02:44:30.067Z,16.67
2018-04-30T02:45:30.008Z,16.59
2018-04-30T02:46:29.943Z,16.70
2018-04-30T02:47:29.884Z,16.70
2018-04-30T02:48:29.821Z,16.69
2018-04-30T02:49:29.762Z,16.73
2018-04-30T02:50:29.701Z,16.77
2018-04-30T02:51:29.642Z,16.73
2018-04-30T02:52:29.581Z,16.88
2018-04-30T02:53:29.524Z,16.84
2018-04-30T02:54:29.460Z,16.98
2018-04-30T02:55:29.404Z,16.99
2018-04-30T02:56:29.339Z,16.97
2018-04-30T02:57:29.279Z,17.10
2018-04-30T02:58:29.219Z,17.07
2018-04-30T02:59:29.159Z,17.02
2018-04-30T03:00:29.098Z,16.98
2018-04-30T03:01:29.038Z,16.84
2018-04-30T03:02:28.977Z,16.82
2018-04-30T03:03:28.922Z,16.77
2018-04-30T03:04:28.856Z,16.79
2018-04-30T03:05:28.796Z,16.72
2018-04-30T03:06:28.734Z,16.73
2018-04-30T03:07:28.676Z,16.67
2018-04-30T03:08:28.616Z,16.64
2018-04-30T03:09:28.559Z,16.64
2018-04-30T03:10:28.492Z,16.61
2018-04-30T03:11:28.436Z,16.59
2018-04-30T03:12:28.372Z,16.64
2018-04-30T03:13:28.315Z,16.65
2018-04-30T03:14:28.253Z,16.49
2018-04-30T03:15:28.193Z,16.52
2018-04-30T03:16:28.134Z,16.46
2018-04-30T03:17:28.072Z,16.44
2018-04-30T03:18:28.010Z,16.44
2018-04-30T03:19:27.950Z,16.40
2018-04-30T03:20:27.888Z,16.42
2018-04-30T03:21:27.827Z,16.34
2018-04-30T03:22:27.769Z,16.37
2018-04-30T03:23:27.706Z,16.34
2018-04-30T03:24:27.651Z,16.24
2018-04-30T03:25:27.585Z,16.24
2018-04-30T03:26:27.526Z,16.10
2018-04-30T03:27:27.466Z,16.13
2018-04-30T03:28:27.404Z,16.08
2018-04-30T03:29:27.342Z,16.10
2018-04-30T03:30:27.287Z,16.10
2018-04-30T03:31:27.222Z,16.18
2018-04-30T03:32:27.161Z,16.09
2018-04-30T03:33:27.100Z,16.16
2018-04-30T03:34:27.037Z,16.08
2018-04-30T03:35:26.978Z,16.08
2018-04-30T03:36:26.917Z,16.03
2018-04-30T03:37:26.856Z,15.99
2018-04-30T03:38:26.796Z,16.05
2018-04-30T03:39:26.732Z,16.03
2018-04-30T03:40:26.674Z,16.06
2018-04-30T03:41:26.621Z,16.03
2018-04-30T03:42:26.553Z,16.05
2018-04-30T03:43:26.490Z,16.05
2018-04-30T03:44:26.429Z,16.02
2018-04-30T03:45:26.368Z,16.03
2018-04-30T03:46:26.311Z,15.99
2018-04-30T03:47:26.247Z,16.05
2018-04-30T03:48:26.186Z,15.96
2018-04-30T03:49:26.125Z,15.98
2018-04-30T03:50:26.065Z,15.93
2018-04-30T03:51:26.005Z,15.96
2018-04-30T03:52:25.942Z,15.84
2018-04-30T03:53:25.883Z,15.85
2018-04-30T03:54:25.819Z,15.87
2018-04-30T03:55:25.759Z,15.83
2018-04-30T03:56:25.698Z,15.77
2018-04-30T03:57:25.638Z,15.73
2018-04-30T03:58:25.581Z,15.69
2018-04-30T03:59:25.521Z,15.59
2018-04-30T04:00:25.470Z,15.62
2018-04-30T04:01:25.395Z,15.62
2018-04-30T04:02:25.333Z,15.51
2018-04-30T04:03:25.272Z,15.50
2018-04-30T04:04:25.211Z,15.48
2018-04-30T04:05:25.150Z,15.36
2018-04-30T04:06:25.089Z,15.44
2018-04-30T04:07:25.028Z,15.38
2018-04-30T04:08:24.967Z,15.43
2018-04-30T04:09:24.910Z,15.41
2018-04-30T04:10:24.851Z,15.33
2018-04-30T04:11:24.785Z,15.35
2018-04-30T04:12:24.722Z,15.29
2018-04-30T04:13:24.662Z,15.32
2018-04-30T04:14:24.601Z,15.36
2018-04-30T04:15:24.540Z,15.35
2018-04-30T04:16:24.479Z,15.33
2018-04-30T04:17:24.417Z,15.22
2018-04-30T04:18:24.357Z,15.20
2018-04-30T04:19:24.294Z,15.12
2018-04-30T04:20:24.236Z,15.12
2018-04-30T04:21:24.171Z,15.12
2018-04-30T04:22:24.112Z,15.12
2018-04-30T04:23:24.049Z,15.10
2018-04-30T04:24:23.990Z,15.15
2018-04-30T04:25:23.928Z,15.07
2018-04-30T04:26:23.871Z,14.95
2018-04-30T04:27:23.805Z,14.87
2018-04-30T04:28:23.744Z,14.89
2018-04-30T04:29:23.681Z,14.82
2018-04-30T04:30:23.621Z,14.73
2018-04-30T04:31:23.560Z,14.63
2018-04-30T04:32:23.498Z,14.58
2018-04-30T04:33:23.437Z,14.56
2018-04-30T04:34:23.375Z,14.63
2018-04-30T04:35:23.314Z,14.58
2018-04-30T04:36:23.252Z,14.48
2018-04-30T04:37:23.191Z,14.38
2018-04-30T04:38:23.129Z,14.31
2018-04-30T04:39:23.071Z,14.33
2018-04-30T04:40:23.011Z,14.22
2018-04-30T04:41:22.946Z,14.23
2018-04-30T04:42:22.881Z,14.16
2018-04-30T04:43:22.822Z,14.01
2018-04-30T04:44:22.759Z,13.90
2018-04-30T04:45:22.697Z,14.01
2018-04-30T04:46:22.636Z,13.98
2018-04-30T04:47:22.578Z,13.94
2018-04-30T04:48:22.513Z,14.00
2018-04-30T04:49:22.450Z,13.94
2018-04-30T04:50:22.390Z,13.88
2018-04-30T04:51:22.327Z,13.80
2018-04-30T04:52:22.265Z,13.75
2018-04-30T04:53:22.204Z,13.67
2018-04-30T04:54:22.144Z,13.68
2018-04-30T04:55:22.083Z,13.63
2018-04-30T04:56:22.018Z,13.65
2018-04-30T04:57:21.957Z,13.60
2018-04-30T04:58:21.893Z,13.60
2018-04-30T04:59:21.835Z,13.47
2018-04-30T05:00:21.769Z,13.53
2018-04-30T05:01:21.708Z,13.42
2018-04-30T05:02:21.734Z,13.51
2018-04-30T05:03:21.583Z,13.42
2018-04-30T05:04:21.525Z,13.40
2018-04-30T05:05:21.459Z,13.46
2018-04-30T05:06:21.397Z,13.45
2018-04-30T05:07:21.336Z,13.38
2018-04-30T05:08:21.271Z,13.38
2018-04-30T05:09:21.212Z,13.36
2018-04-30T05:10:21.153Z,13.24
2018-04-30T05:11:21.093Z,13.36
2018-04-30T05:12:21.025Z,13.36
2018-04-30T05:13:20.961Z,13.21
2018-04-30T05:14:20.899Z,13.21
2018-04-30T05:15:20.839Z,13.21
2018-04-30T05:16:20.775Z,13.19
2018-04-30T05:17:20.776Z,13.06
2018-04-30T05:18:20.655Z,13.02
2018-04-30T05:19:20.592Z,13.02
2018-04-30T05:20:20.525Z,13.01
2018-04-30T05:21:20.467Z,13.01
2018-04-30T05:22:20.403Z,12.98
2018-04-30T05:23:20.336Z,12.91
2018-04-30T05:24:20.278Z,12.93
2018-04-30T05:25:20.214Z,12.98
2018-04-30T05:26:20.152Z,12.91
2018-04-30T05:27:20.090Z,12.87
2018-04-30T05:28:20.028Z,12.90
2018-04-30T05:29:19.965Z,12.93
2018-04-30T05:30:19.901Z,13.01
2018-04-30T05:31:19.841Z,12.95
2018-04-30T05:32:19.778Z,12.95
2018-04-30T05:33:19.715Z,12.90
2018-04-30T05:34:19.657Z,12.93
2018-04-30T05:35:19.596Z,12.93
2018-04-30T05:36:19.526Z,12.88
2018-04-30T05:37:19.466Z,12.79
2018-04-30T05:38:19.404Z,12.83
2018-04-30T05:39:19.340Z,12.77
2018-04-30T05:40:19.277Z,12.77
2018-04-30T05:41:19.215Z,12.69
2018-04-30T05:42:19.153Z,12.69
2018-04-30T05:43:19.090Z,12.59
2018-04-30T05:44:19.028Z,12.61
2018-04-30T05:45:18.966Z,12.58
2018-04-30T05:46:18.908Z,12.48
2018-04-30T05:47:18.842Z,12.46
2018-04-30T05:48:18.778Z,12.47
2018-04-30T05:49:18.716Z,12.46
2018-04-30T05:50:18.654Z,12.30
2018-04-30T05:51:18.591Z,12.30
2018-04-30T05:52:18.529Z,12.23
2018-04-30T05:53:18.471Z,12.22
2018-04-30T05:54:18.403Z,12.10
2018-04-30T05:55:18.401Z,12.21
2018-04-30T05:56:18.277Z,12.15
2018-04-30T05:57:18.214Z,12.08
2018-04-30T05:58:18.154Z,11.99
2018-04-30T05:59:18.122Z,12.04
2018-04-30T06:00:18.030Z,11.99
2018-04-30T06:01:17.968Z,11.99
2018-04-30T06:02:17.902Z,11.88
2018-04-30T06:03:17.840Z,11.85
2018-04-30T06:04:17.785Z,11.89
2018-04-30T06:05:17.714Z,11.85
2018-04-30T06:06:17.651Z,11.79
2018-04-30T06:07:17.589Z,11.70
2018-04-30T06:08:17.524Z,11.76
2018-04-30T06:09:17.463Z,11.77
2018-04-30T06:10:17.405Z,11.67
2018-04-30T06:11:17.338Z,11.79
2018-04-30T06:12:17.276Z,11.64
2018-04-30T06:13:17.214Z,11.64
2018-04-30T06:14:17.150Z,11.62
2018-04-30T06:15:17.157Z,11.70
2018-04-30T06:16:17.024Z,11.76
2018-04-30T06:17:16.960Z,11.74
2018-04-30T06:18:16.899Z,11.84
2018-04-30T06:19:16.835Z,11.77
2018-04-30T06:20:16.772Z,11.82
2018-04-30T06:21:16.707Z,11.84
2018-04-30T06:22:16.647Z,11.71
2018-04-30T06:23:16.589Z,11.67
2018-04-30T06:24:16.522Z,11.77
2018-04-30T06:25:16.457Z,11.74
2018-04-30T06:26:16.394Z,11.61
2018-04-30T06:27:16.333Z,11.61
2018-04-30T06:28:16.269Z,11.56
2018-04-30T06:29:16.216Z,11.56
2018-04-30T06:30:16.143Z,11.62
2018-04-30T06:31:16.082Z,11.56
2018-04-30T06:32:16.023Z,11.58
2018-04-30T06:33:15.992Z,11.52
2018-04-30T06:34:15.892Z,11.52
2018-04-30T06:35:15.831Z,11.48
2018-04-30T06:36:15.766Z,11.38
2018-04-30T06:37:15.704Z,11.37
2018-04-30T06:38:15.644Z,11.28
2018-04-30T06:39:15.579Z,11.37
2018-04-30T06:40:15.516Z,11.43
2018-04-30T06:41:15.451Z,11.27
2018-04-30T06:42:15.390Z,11.27
2018-04-30T06:43:15.323Z,11.37
2018-04-30T06:44:15.262Z,11.30
2018-04-30T06:45:15.198Z,11.28
2018-04-30T06:46:15.135Z,11.22
2018-04-30T06:47:15.074Z,11.19
2018-04-30T06:48:15.011Z,11.20
2018-04-30T06:49:14.946Z,11.23
2018-04-30T06:50:14.882Z,11.16
2018-04-30T06:51:14.828Z,11.16
2018-04-30T06:52:14.761Z,11.15
2018-04-30T06:53:14.693Z,11.18
2018-04-30T06:54:14.630Z,11.16
2018-04-30T06:55:14.571Z,11.16
2018-04-30T06:56:14.505Z,11.18
2018-04-30T06:57:14.440Z,11.15
2018-04-30T06:58:14.377Z,11.13
2018-04-30T06:59:14.313Z,11.16
2018-04-30T07:00:14.320Z,11.20
2018-04-30T07:01:14.187Z,11.20
2018-04-30T07:02:14.125Z,11.18
2018-04-30T07:03:14.061Z,11.13
2018-04-30T07:04:13.999Z,11.16
2018-04-30T07:05:13.934Z,11.16
2018-04-30T07:06:13.871Z,11.23
2018-04-30T07:07:13.809Z,11.20
2018-04-30T07:08:13.745Z,11.18
2018-04-30T07:09:13.795Z,11.16
2018-04-30T07:10:13.618Z,11.16
2018-04-30T07:11:13.555Z,11.15
2018-04-30T07:12:13.491Z,11.12
2018-04-30T07:13:13.427Z,11.05
2018-04-30T07:14:13.366Z,11.11
2018-04-30T07:15:13.302Z,11.12
2018-04-30T07:16:13.237Z,11.18
2018-04-30T07:17:13.175Z,11.15
2018-04-30T07:18:13.111Z,11.18
2018-04-30T07:19:13.047Z,11.22
2018-04-30T07:20:13.001Z,11.31
2018-04-30T07:21:12.919Z,11.25
2018-04-30T07:22:12.859Z,11.28
2018-04-30T07:23:12.794Z,11.33
2018-04-30T07:24:12.731Z,11.37
2018-04-30T07:25:12.668Z,11.34
2018-04-30T07:26:12.603Z,11.34
2018-04-30T07:27:12.542Z,11.38
2018-04-30T07:28:12.475Z,11.41
2018-04-30T07:29:12.420Z,11.49
2018-04-30T07:30:12.350Z,11.59
2018-04-30T07:31:12.286Z,11.61
2018-04-30T07:32:12.224Z,11.61
2018-04-30T07:33:12.249Z,11.61
2018-04-30T07:34:12.099Z,11.79
2018-04-30T07:35:12.035Z,11.76
2018-04-30T07:36:11.968Z,11.84
2018-04-30T07:37:11.905Z,11.93
2018-04-30T07:38:11.845Z,11.85
2018-04-30T07:39:11.807Z,12.14
2018-04-30T07:40:11.743Z,12.17
2018-04-30T07:41:11.663Z,12.29
2018-04-30T07:42:11.636Z,12.43
2018-04-30T07:43:11.560Z,12.50
2018-04-30T07:44:11.464Z,12.76
2018-04-30T07:45:11.403Z,12.76
2018-04-30T07:46:11.337Z,12.88
2018-04-30T07:47:11.281Z,12.88
2018-04-30T07:48:11.211Z,13.09
2018-04-30T07:49:11.237Z,13.23
2018-04-30T07:50:11.088Z,13.32
2018-04-30T07:51:11.028Z,13.43
2018-04-30T07:52:10.966Z,13.40
2018-04-30T07:53:10.904Z,13.40
2018-04-30T07:54:10.837Z,13.43
2018-04-30T07:55:10.773Z,13.46
2018-04-30T07:56:10.709Z,13.40
2018-04-30T07:57:10.653Z,13.38
2018-04-30T07:58:10.582Z,13.39
2018-04-30T07:59:10.523Z,13.32
2018-04-30T08:00:10.460Z,13.29
2018-04-30T08:01:10.400Z,13.39
2018-04-30T08:02:10.338Z,13.40
2018-04-30T08:03:10.414Z,13.55
2018-04-30T08:04:10.214Z,13.63
2018-04-30T08:05:10.152Z,13.68
2018-04-30T08:06:10.088Z,13.80
2018-04-30T08:07:10.026Z,13.78
2018-04-30T08:08:09.960Z,13.78
2018-04-30T08:09:09.928Z,13.80
2018-04-30T08:10:09.837Z,13.91
2018-04-30T08:11:09.776Z,13.86
2018-04-30T08:12:09.717Z,13.90
2018-04-30T08:13:09.652Z,13.80
2018-04-30T08:14:09.589Z,13.85
2018-04-30T08:15:09.527Z,13.90
2018-04-30T08:16:09.464Z,13.91
2018-04-30T08:17:09.401Z,13.93
2018-04-30T08:18:09.342Z,13.96
2018-04-30T08:19:09.278Z,14.04
2018-04-30T08:20:09.216Z,14.08
2018-04-30T08:21:09.154Z,14.05
2018-04-30T08:22:09.093Z,14.08
2018-04-30T08:23:09.039Z,14.21
2018-04-30T08:24:08.968Z,14.09
2018-04-30T08:25:08.907Z,14.19
2018-04-30T08:26:08.844Z,14.27
2018-04-30T08:27:08.784Z,14.30
2018-04-30T08:28:08.725Z,14.34
2018-04-30T08:29:08.660Z,14.36
2018-04-30T08:30:08.598Z,14.36
2018-04-30T08:31:08.537Z,14.38
2018-04-30T08:32:08.475Z,14.53
2018-04-30T08:33:08.413Z,14.52
2018-04-30T08:34:08.353Z,14.58
2018-04-30T08:35:08.291Z,14.71
2018-04-30T08:36:08.231Z,14.71
2018-04-30T08:37:08.168Z,14.89
2018-04-30T08:38:08.105Z,15.01
2018-04-30T08:39:08.047Z,15.01
2018-04-30T08:40:07.981Z,15.05
2018-04-30T08:41:07.925Z,15.07
2018-04-30T08:42:07.861Z,15.14
2018-04-30T08:43:07.798Z,15.12
2018-04-30T08:44:07.737Z,15.14
2018-04-30T08:45:07.755Z,15.12
2018-04-30T08:46:07.614Z,15.14
2018-04-30T08:47:07.554Z,15.23
2018-04-30T08:48:07.494Z,15.26
2018-04-30T08:49:07.431Z,15.36
2018-04-30T08:50:07.371Z,15.36
2018-04-30T08:51:07.313Z,15.44
2018-04-30T08:52:07.281Z,15.47
2018-04-30T08:53:07.188Z,15.52
2018-04-30T08:54:07.125Z,15.80
2018-04-30T08:55:07.066Z,15.85
2018-04-30T08:56:07.007Z,16.00
2018-04-30T08:57:06.946Z,16.03
2018-04-30T08:58:06.883Z,16.25
2018-04-30T08:59:06.825Z,16.39
2018-04-30T09:00:06.760Z,16.25
2018-04-30T09:01:06.700Z,16.42
2018-04-30T09:02:06.643Z,16.51
2018-04-30T09:03:06.581Z,16.64
2018-04-30T09:04:06.520Z,16.64
2018-04-30T09:05:06.458Z,16.58
2018-04-30T09:06:06.399Z,16.54
2018-04-30T09:07:06.339Z,16.28
2018-04-30T09:08:06.277Z,16.17
2018-04-30T09:09:06.217Z,16.13
2018-04-30T09:10:06.159Z,16.06
2018-04-30T09:11:06.097Z,16.09
2018-04-30T09:12:06.037Z,16.18
2018-04-30T09:13:05.977Z,16.26
2018-04-30T09:14:05.919Z,16.40
2018-04-30T09:15:05.943Z,16.43
2018-04-30T09:16:05.796Z,16.40
2018-04-30T09:17:05.738Z,16.36
2018-04-30T09:18:05.681Z,16.34
2018-04-30T09:19:05.617Z,16.36
2018-04-30T09:20:05.553Z,16.28
2018-04-30T09:21:05.500Z,16.10
2018-04-30T09:22:05.440Z,16.10
2018-04-30T09:23:05.375Z,16.32
2018-04-30T09:24:05.316Z,16.42
2018-04-30T09:25:05.259Z,16.58
2018-04-30T09:26:05.197Z,16.59
2018-04-30T09:27:05.137Z,16.61
2018-04-30T09:28:05.125Z,16.64
2018-04-30T09:29:05.089Z,16.67
2018-04-30T09:30:04.957Z,16.91
2018-04-30T09:31:04.924Z,17.09
2018-04-30T09:32:04.838Z,17.06
2018-04-30T09:33:04.777Z,17.12
2018-04-30T09:34:04.719Z,17.31
2018-04-30T09:35:04.736Z,17.27
2018-04-30T09:36:04.599Z,17.39
2018-04-30T09:37:04.542Z,17.57
2018-04-30T09:38:04.476Z,17.57
2018-04-30T09:39:04.420Z,17.75
2018-04-30T09:40:04.360Z,17.72
2018-04-30T09:41:04.311Z,17.86
2018-04-30T09:42:04.244Z,18.05
2018-04-30T09:43:04.183Z,18.03
2018-04-30T09:44:04.122Z,18.24
2018-04-30T09:45:04.061Z,18.33
2018-04-30T09:46:04.004Z,18.49
2018-04-30T09:47:03.946Z,18.66
2018-04-30T09:48:03.887Z,18.70
2018-04-30T09:49:03.828Z,18.67
2018-04-30T09:50:03.768Z,18.88
2018-04-30T09:51:03.709Z,19.08
2018-04-30T09:52:03.650Z,19.32
2018-04-30T09:53:03.593Z,19.26
2018-04-30T09:54:03.533Z,19.50
2018-04-30T09:55:03.478Z,19.96
2018-04-30T09:56:03.415Z,20.64
2018-04-30T09:57:03.360Z,21.37
2018-04-30T09:58:03.300Z,22.18
2018-04-30T09:59:03.242Z,22.83
2018-04-30T10:00:03.184Z,23.45
2018-04-30T10:01:03.126Z,23.94
2018-04-30T10:02:03.070Z,24.41
2018-04-30T10:03:03.013Z,24.78
2018-04-30T10:04:02.958Z,25.06
2018-04-30T10:05:02.904Z,25.21
2018-04-30T10:06:02.848Z,25.06
2018-04-30T10:07:02.793Z,25.09
2018-04-30T10:08:02.735Z,24.68
2018-04-30T10:09:02.683Z,24.59
2018-04-30T10:10:02.628Z,24.74
2018-04-30T10:11:02.575Z,24.76
2018-04-30T10:12:02.521Z,24.93
2018-04-30T10:13:02.463Z,25.16
2018-04-30T10:14:02.415Z,25.15
2018-04-30T10:15:02.359Z,25.30
2018-04-30T10:16:02.307Z,25.28
2018-04-30T10:17:02.254Z,25.04
2018-04-30T10:18:02.202Z,25.15
2018-04-30T10:19:02.152Z,25.36
2018-04-30T10:20:02.098Z,25.43
2018-04-30T10:21:02.054Z,25.27
2018-04-30T10:22:02.004Z,25.40
2018-04-30T10:23:01.944Z,25.41
2018-04-30T10:24:01.896Z,25.28
2018-04-30T10:25:01.840Z,25.41
2018-04-30T10:26:01.788Z,25.38
2018-04-30T10:27:01.739Z,25.34
2018-04-30T10:28:01.686Z,25.37
2018-04-30T10:29:01.679Z,25.37
2018-04-30T10:30:01.586Z,25.48
2018-04-30T10:31:01.548Z,25.56
2018-04-30T10:32:01.486Z,25.45
2018-04-30T10:33:01.447Z,25.43
2018-04-30T10:34:01.385Z,25.18
2018-04-30T10:35:01.332Z,24.90
2018-04-30T10:36:01.281Z,24.90
2018-04-30T10:37:01.232Z,24.81
2018-04-30T10:38:01.221Z,24.84
2018-04-30T10:39:01.130Z,24.65
2018-04-30T10:40:01.079Z,24.25
2018-04-30T10:41:01.031Z,24.21
2018-04-30T10:42:00.982Z,24.01
2018-04-30T10:43:00.929Z,24.01
2018-04-30T10:44:00.878Z,24.25
2018-04-30T10:45:00.827Z,24.34
2018-04-30T10:46:00.786Z,24.59
2018-04-30T10:47:00.726Z,24.59
2018-04-30T10:48:00.676Z,24.44
2018-04-30T10:49:00.627Z,24.38
2018-04-30T10:50:00.577Z,24.44
2018-04-30T10:51:00.524Z,24.21
2018-04-30T10:52:00.477Z,24.25
2018-04-30T10:53:00.433Z,24.29
2018-04-30T10:54:00.373Z,24.22
2018-04-30T10:55:00.320Z,24.00
2018-04-30T10:56:00.270Z,23.98
2018-04-30T10:57:00.228Z,24.01
2018-04-30T10:58:00.169Z,24.04
2018-04-30T10:59:00.119Z,23.97
2018-04-30T11:00:00.073Z,24.11
2018-04-30T11:01:00.016Z,23.89
2018-04-30T11:01:59.966Z,23.79
2018-04-30T11:02:59.916Z,23.79
2018-04-30T11:03:59.862Z,23.61
2018-04-30T11:04:59.812Z,23.71
2018-04-30T11:05:59.760Z,23.76
2018-04-30T11:06:59.709Z,23.51
2018-04-30T11:07:59.660Z,23.33
2018-04-30T11:08:59.604Z,22.89
2018-04-30T11:09:59.557Z,22.21
2018-04-30T11:10:59.501Z,22.11
2018-04-30T11:11:59.450Z,21.93
2018-04-30T11:12:59.398Z,21.59
2018-04-30T11:13:59.345Z,21.30
2018-04-30T11:14:59.293Z,21.19
2018-04-30T11:15:59.240Z,20.86
2018-04-30T11:16:59.195Z,20.37
2018-04-30T11:17:59.133Z,20.08
2018-04-30T11:18:59.090Z,19.75
2018-04-30T11:19:59.029Z,19.72
2018-04-30T11:20:58.975Z,19.74
2018-04-30T11:21:58.924Z,19.75
2018-04-30T11:22:58.865Z,19.84
2018-04-30T11:23:58.810Z,19.96
2018-04-30T11:24:58.757Z,20.07
2018-04-30T11:25:58.702Z,19.99
2018-04-30T11:26:58.648Z,20.04
2018-04-30T11:27:58.592Z,20.05
2018-04-30T11:28:58.542Z,20.08
2018-04-30T11:29:58.483Z,20.04
2018-04-30T11:30:58.429Z,19.82
2018-04-30T11:31:58.372Z,19.92
2018-04-30T11:32:58.317Z,19.74
2018-04-30T11:33:58.262Z,19.75
2018-04-30T11:34:58.204Z,19.72
2018-04-30T11:35:58.150Z,19.67
2018-04-30T11:36:58.095Z,19.67
2018-04-30T11:37:58.038Z,19.68
2018-04-30T11:38:57.982Z,19.63
2018-04-30T11:39:57.974Z,19.78
2018-04-30T11:40:57.870Z,19.77
2018-04-30T11:41:57.813Z,19.77
2018-04-30T11:42:57.755Z,19.72
2018-04-30T11:43:57.702Z,19.67
2018-04-30T11:44:57.643Z,19.62
2018-04-30T11:45:57.585Z,19.52
2018-04-30T11:46:57.532Z,19.47
2018-04-30T11:47:57.474Z,19.39
2018-04-30T11:48:57.419Z,19.38
2018-04-30T11:49:57.359Z,19.34
2018-04-30T11:50:57.303Z,19.30
2018-04-30T11:51:57.245Z,19.35
2018-04-30T11:52:57.187Z,19.37
2018-04-30T11:53:57.140Z,19.42
2018-04-30T11:54:57.075Z,19.37
2018-04-30T11:55:57.019Z,19.41
2018-04-30T11:56:56.959Z,19.44
2018-04-30T11:57:56.901Z,19.49
2018-04-30T11:58:56.843Z,19.54
2018-04-30T11:59:56.784Z,19.56
2018-04-30T12:00:56.727Z,19.57
2018-04-30T12:01:56.671Z,19.57
2018-04-30T12:02:56.615Z,19.62
2018-04-30T12:03:56.555Z,19.67
2018-04-30T12:04:56.516Z,19.64
2018-04-30T12:05:56.443Z,19.72
2018-04-30T12:06:56.382Z,19.70
2018-04-30T12:07:56.326Z,19.81
2018-04-30T12:08:56.267Z,19.87
2018-04-30T12:09:56.209Z,19.75
2018-04-30T12:10:56.228Z,19.63
2018-04-30T12:11:56.093Z,19.70
2018-04-30T12:12:56.038Z,19.67
2018-04-30T12:13:55.983Z,19.62
2018-04-30T12:14:55.921Z,19.60
2018-04-30T12:15:55.862Z,19.60
2018-04-30T12:16:55.808Z,19.59
2018-04-30T12:17:55.747Z,19.74
2018-04-30T12:18:55.693Z,19.71
2018-04-30T12:19:55.632Z,19.74
2018-04-30T12:20:55.574Z,19.75
2018-04-30T12:21:55.528Z,19.79
2018-04-30T12:22:55.460Z,19.78
2018-04-30T12:23:55.398Z,19.72
2018-04-30T12:24:55.343Z,19.77
2018-04-30T12:25:55.285Z,19.74
2018-04-30T12:26:55.227Z,19.77
2018-04-30T12:27:55.216Z,19.75
2018-04-30T12:28:55.132Z,19.78
2018-04-30T12:29:55.054Z,19.87
2018-04-30T12:30:54.997Z,19.74
2018-04-30T12:31:54.936Z,19.75
2018-04-30T12:32:54.878Z,19.72
2018-04-30T12:33:54.820Z,19.63
2018-04-30T12:34:54.763Z,19.64
2018-04-30T12:35:54.703Z,19.64
2018-04-30T12:36:54.648Z,19.62
2018-04-30T12:37:54.588Z,19.59
2018-04-30T12:38:54.531Z,19.78
2018-04-30T12:39:54.475Z,19.71
2018-04-30T12:40:54.415Z,19.78
2018-04-30T12:41:54.357Z,19.78
2018-04-30T12:42:54.299Z,19.72
2018-04-30T12:43:54.242Z,19.78
2018-04-30T12:44:54.185Z,19.87
2018-04-30T12:45:54.121Z,19.90
2018-04-30T12:46:54.067Z,19.96
2018-04-30T12:47:54.007Z,20.05
2018-04-30T12:48:53.948Z,20.00
2018-04-30T12:49:53.891Z,20.08
2018-04-30T12:50:53.919Z,20.11
2018-04-30T12:51:53.776Z,20.07